Time;durP1;ratioP1;P1;durP2;ratioP2;P2;SDS_P1;SDS_P2;PMS_P1;PMS_P2;Temp;Humidity;BMP_temperature;BMP_pressure;BME280_temperature;BME280_humidity;BME280_pressure;Samples;Min_cycle;Max_cycle;Signal;HPM_P1;HPM_P2
2022/03/21 00:01:17;;;;;;;5.67;5.07;;;;;;;2.46;66.71;102148.28;5052510;28;20171;-71
2022/03/21 00:03:43;;;;;;;6.57;5.60;;;;;;;2.60;66.63;102144.47;5052636;28;20179;-71
2022/03/21 00:06:09;;;;;;;11.00;6.30;;;;;;;2.68;66.34;102143.38;5034611;28;20643;-71
2022/03/21 00:08:34;;;;;;;6.57;5.70;;;;;;;2.74;65.30;102131.69;5052280;28;20182;-70
2022/03/21 00:11:01;;;;;;;7.07;6.27;;;;;;;2.70;65.51;102130.50;5052400;28;20168;-71
2022/03/21 00:13:27;;;;;;;7.10;5.90;;;;;;;2.76;65.55;102139.59;5052241;28;20698;-71
2022/03/21 00:15:54;;;;;;;5.93;5.33;;;;;;;2.81;65.18;102137.91;5052361;28;20171;-71
2022/03/21 00:18:20;;;;;;;7.67;5.93;;;;;;;2.79;65.24;102131.06;5052086;28;20171;-71
2022/03/21 00:20:49;;;;;;;8.67;7.23;;;;;;;2.80;65.37;102135.41;5052366;28;20172;-71
2022/03/21 00:23:14;;;;;;;6.23;5.63;;;;;;;2.81;65.40;102135.19;5052016;28;20274;-71
2022/03/21 00:25:40;;;;;;;6.97;6.20;;;;;;;2.81;65.19;102132.50;5052235;28;20171;-74
2022/03/21 00:28:07;;;;;;;5.10;4.53;;;;;;;2.78;64.90;102129.41;5051762;28;20191;-71
2022/03/21 00:30:34;;;;;;;8.03;5.67;;;;;;;2.75;65.36;102130.69;5052135;28;20182;-71
2022/03/21 00:33:00;;;;;;;7.10;6.33;;;;;;;2.72;65.46;102127.56;5051884;28;20196;-71
2022/03/21 00:35:26;;;;;;;7.03;6.33;;;;;;;2.48;64.73;102110.31;5052021;28;20667;-72
2022/03/21 00:37:52;;;;;;;7.57;4.47;;;;;;;2.57;65.16;102130.56;5051769;28;20171;-71
2022/03/21 00:40:17;;;;;;;6.23;5.57;;;;;;;2.66;64.75;102129.28;5052101;28;20267;-71
2022/03/21 00:42:45;;;;;;;6.77;6.03;;;;;;;2.69;64.71;102128.84;5051840;28;20171;-71
2022/03/21 00:45:18;;;;;;;6.03;5.43;;;;;;;2.66;64.61;102138.19;5052097;28;20171;-71
2022/03/21 00:47:45;;;;;;;7.23;6.53;;;;;;;2.60;64.68;102122.03;5051582;28;20170;-71
2022/03/21 00:50:13;;;;;;;6.83;6.13;;;;;;;2.63;64.92;102143.22;5051749;28;20180;-70
2022/03/21 00:52:43;;;;;;;5.37;4.87;;;;;;;2.52;64.83;102125.84;5051805;28;20198;-71
2022/03/21 00:55:09;;;;;;;6.33;5.70;;;;;;;2.33;65.93;102118.69;5051684;28;20210;-70
2022/03/21 00:57:35;;;;;;;5.20;4.70;;;;;;;2.30;66.68;102119.91;5051413;28;20187;-71
2022/03/21 01:00:04;;;;;;;6.67;5.97;;;;;;;2.35;67.30;102141.69;5051582;28;20167;-74
2022/03/21 01:02:30;;;;;;;6.10;5.43;;;;;;;2.41;67.49;102133.78;5051498;28;20504;-70
2022/03/21 01:04:55;;;;;;;7.73;6.00;;;;;;;2.38;67.45;102133.16;5051405;28;20575;-71
2022/03/21 01:07:20;;;;;;;6.93;6.23;;;;;;;2.30;67.54;102124.47;5051191;28;20175;-72
2022/03/21 01:09:46;;;;;;;7.23;6.07;;;;;;;2.20;68.05;102124.13;5051495;28;20183;-71
2022/03/21 01:12:11;;;;;;;7.30;5.97;;;;;;;2.19;68.49;102119.78;5051205;28;20182;-71
2022/03/21 01:14:36;;;;;;;6.97;6.03;;;;;;;2.20;68.54;102127.66;5051212;28;20229;-71
2022/03/21 01:17:02;;;;;;;7.83;6.27;;;;;;;2.21;68.40;102126.63;5051507;28;20172;-73
2022/03/21 01:19:30;;;;;;;6.40;5.80;;;;;;;2.33;68.70;102130.28;5051103;28;20195;-71
2022/03/21 01:21:56;;;;;;;7.17;5.83;;;;;;;2.34;68.54;102133.81;5051148;28;20183;-71
2022/03/21 01:24:21;;;;;;;8.07;6.17;;;;;;;1.97;67.67;102106.59;5051193;28;20164;-71
2022/03/21 01:26:46;;;;;;;6.10;5.50;;;;;;;2.16;67.40;102106.72;5050896;28;20171;-72
2022/03/21 01:29:12;;;;;;;7.00;6.40;;;;;;;2.33;67.27;102134.88;5050845;28;20667;-71
2022/03/21 01:31:37;;;;;;;6.93;6.20;;;;;;;2.46;66.98;102117.75;5050818;28;20175;-70
2022/03/21 01:34:02;;;;;;;7.27;5.80;;;;;;;2.48;66.61;102113.00;5050587;28;20199;-71
2022/03/21 01:36:28;;;;;;;7.40;6.40;;;;;;;2.50;66.76;102113.59;5032839;28;20175;-73
2022/03/21 01:38:53;;;;;;;6.90;6.20;;;;;;;2.38;66.40;102111.59;5050830;28;20170;-71
2022/03/21 01:41:18;;;;;;;6.47;5.70;;;;;;;2.38;67.34;102114.28;5050769;28;20309;-71
2022/03/21 01:44:05;;;;;;;7.27;6.17;;;;;;;2.33;67.15;102107.91;5050676;28;20231;-71
2022/03/21 01:46:32;;;;;;;8.73;6.20;;;;;;;1.82;67.87;102099.81;5032649;28;20732;-70
2022/03/21 01:48:58;;;;;;;7.20;6.27;;;;;;;1.94;68.24;102114.28;5050372;28;20179;-74
2022/03/21 01:51:26;;;;;;;7.03;5.50;;;;;;;2.01;68.26;102117.75;5032923;28;20228;-71
2022/03/21 01:56:40;;;;;;;7.47;5.87;;;;;;;2.10;69.07;102124.59;5050376;28;20599;-71
2022/03/21 01:59:08;;;;;;;7.03;6.27;;;;;;;1.49;68.78;102088.09;5050298;28;20175;-71
2022/03/21 02:01:33;;;;;;;8.23;5.93;;;;;;;1.77;69.58;102105.84;5050146;28;20199;-71
2022/03/21 02:03:59;;;;;;;7.83;6.30;;;;;;;1.90;69.60;102115.75;5050400;28;20262;-71
2022/03/21 02:06:28;;;;;;;11.60;5.23;;;;;;;2.06;69.71;102120.66;5050283;28;20258;-71
2022/03/21 02:08:55;;;;;;;8.60;6.53;;;;;;;2.10;68.59;102113.81;5050213;28;20167;-71
2022/03/21 02:11:20;;;;;;;6.77;5.83;;;;;;;1.96;68.54;102107.63;5050015;28;20585;-71
2022/03/21 02:13:46;;;;;;;6.87;6.20;;;;;;;1.96;68.33;102106.81;5050109;28;20199;-71
2022/03/21 02:16:11;;;;;;;6.83;6.10;;;;;;;1.74;67.87;102090.09;5050280;28;20202;-70
2022/03/21 02:18:39;;;;;;;9.80;6.60;;;;;;;1.69;67.90;102095.28;5050169;28;20546;-71
2022/03/21 02:21:09;;;;;;;7.03;6.03;;;;;;;1.82;68.49;102099.81;5050136;28;20167;-70
2022/03/21 02:23:46;;;;;;;8.77;7.13;;;;;;;2.03;68.11;102107.63;5050143;28;20690;-71
2022/03/21 02:26:12;;;;;;;7.37;6.57;;;;;;;1.92;67.84;102087.53;5049978;28;20627;-73
2022/03/21 02:28:39;;;;;;;6.73;6.10;;;;;;;1.96;68.00;102107.63;5049955;28;20202;-71
2022/03/21 02:31:05;;;;;;;7.47;6.47;;;;;;;1.78;68.36;102088.63;5050005;28;20254;-71
2022/03/21 02:33:31;;;;;;;7.30;6.10;;;;;;;1.82;68.02;102094.41;5049963;28;20210;-71
2022/03/21 02:35:57;;;;;;;8.37;6.07;;;;;;;1.82;68.17;102097.13;5050070;28;20186;-71
2022/03/21 02:38:24;;;;;;;7.43;6.73;;;;;;;1.79;68.01;102098.38;5049971;28;20185;-70
2022/03/21 02:40:49;;;;;;;6.80;6.10;;;;;;;1.75;68.13;102089.91;5049944;28;20184;-71
2022/03/21 02:43:15;;;;;;;11.20;6.80;;;;;;;1.74;68.51;102096.31;5049979;28;20268;-71
2022/03/21 02:45:41;;;;;;;8.27;5.53;;;;;;;1.91;67.97;102104.75;5035730;28;20191;-71
2022/03/21 02:48:06;;;;;;;6.50;5.90;;;;;;;1.85;67.64;102097.50;5054118;28;20214;-71
2022/03/21 02:50:40;;;;;;;6.77;5.90;;;;;;;1.90;67.36;102102.28;5054104;28;20214;-71
2022/03/21 02:53:06;;;;;;;7.60;6.20;;;;;;;2.03;66.65;102099.53;5054033;28;20178;-71
2022/03/21 02:55:32;;;;;;;8.87;5.70;;;;;;;2.17;65.69;102102.97;5054428;28;20179;-71
2022/03/21 02:57:57;;;;;;;7.23;6.53;;;;;;;2.35;64.24;102105.81;5053752;28;20647;-71
2022/03/21 03:00:23;;;;;;;6.63;5.93;;;;;;;2.51;63.55;102117.97;5053974;28;20178;-72
2022/03/21 03:02:48;;;;;;;7.23;5.23;;;;;;;2.64;62.78;102123.28;5054013;28;20182;-70
2022/03/21 03:05:13;;;;;;;7.33;6.07;;;;;;;2.67;62.44;102114.75;5053923;28;20183;-71
2022/03/21 03:07:39;;;;;;;8.87;6.83;;;;;;;2.68;62.80;102119.91;5053764;28;20191;-71
2022/03/21 03:10:05;;;;;;;8.97;6.37;;;;;;;2.70;62.67;102125.09;5053606;28;20663;-71
2022/03/21 03:12:31;;;;;;;7.23;6.30;;;;;;;2.67;63.08;102117.44;5035996;28;20531;-73
2022/03/21 03:14:56;;;;;;;7.40;6.57;;;;;;;2.76;62.61;102135.03;5053762;28;20199;-74
2022/03/21 03:17:22;;;;;;;7.33;6.63;;;;;;;2.79;62.65;102128.38;5053516;28;20538;-71
2022/03/21 03:19:47;;;;;;;8.70;6.73;;;;;;;2.66;62.77;102121.19;5053779;28;20207;-70
2022/03/21 03:22:14;;;;;;;6.30;5.70;;;;;;;2.53;63.26;102127.47;5035660;28;20674;-71
2022/03/21 03:24:40;;;;;;;8.27;6.40;;;;;;;2.69;63.52;102140.47;5053660;28;20236;-72
2022/03/21 03:27:05;;;;;;;6.73;6.03;;;;;;;2.67;63.33;102139.03;5053392;28;20230;-72
2022/03/21 03:29:31;;;;;;;8.13;6.53;;;;;;;2.62;62.80;102137.00;5053262;28;20633;-71
2022/03/21 03:32:00;;;;;;;6.50;5.90;;;;;;;2.52;63.15;102125.00;5053493;28;20171;-71
2022/03/21 03:34:25;;;;;;;9.23;7.23;;;;;;;2.47;63.34;102119.44;5053337;28;20697;-71
2022/03/21 03:36:51;;;;;;;8.63;7.07;;;;;;;2.45;63.77;102121.50;5053366;28;20175;-72
2022/03/21 03:39:17;;;;;;;8.23;7.17;;;;;;;2.51;64.02;102139.53;5053170;28;20182;-71
2022/03/21 03:41:42;;;;;;;7.30;6.33;;;;;;;2.46;64.13;102134.81;5053401;28;20221;-71
2022/03/21 03:44:07;;;;;;;6.33;5.73;;;;;;;2.50;64.44;102141.41;5053480;28;20594;-71
2022/03/21 03:46:33;;;;;;;7.10;6.40;;;;;;;2.46;64.82;102131.25;5053071;28;20258;-70
2022/03/21 03:48:58;;;;;;;8.00;6.27;;;;;;;2.45;64.83;102138.50;5052819;28;20179;-73
2022/03/21 03:51:24;;;;;;;8.67;6.63;;;;;;;2.56;65.08;102145.09;5052906;28;20179;-71
2022/03/21 03:53:49;;;;;;;6.70;6.10;;;;;;;2.59;64.89;102145.50;5052786;28;20202;-71
2022/03/21 03:56:14;;;;;;;7.87;7.07;;;;;;;2.51;65.26;102142.22;5052285;28;20535;-73
2022/03/21 03:58:40;;;;;;;9.87;7.33;;;;;;;2.38;65.94;102132.34;5052728;28;20313;-71
2022/03/21 04:01:06;;;;;;;8.80;6.57;;;;;;;2.35;66.02;102143.56;5052930;28;20203;-71
2022/03/21 04:03:44;;;;;;;8.03;7.23;;;;;;;2.33;66.18;102135.69;5052876;28;20640;-71
2022/03/21 04:06:14;;;;;;;7.40;6.33;;;;;;;2.28;66.38;102137.34;5053010;28;20179;-72
2022/03/21 04:08:41;;;;;;;7.73;6.60;;;;;;;2.16;66.55;102133.66;5052506;28;20241;-72
2022/03/21 04:11:06;;;;;;;7.77;6.97;;;;;;;1.94;67.45;102125.06;5052555;28;20176;-71
2022/03/21 04:13:31;;;;;;;8.77;7.07;;;;;;;1.82;67.72;102116.81;5052744;28;20214;-72
2022/03/21 04:15:57;;;;;;;7.90;7.03;;;;;;;1.93;68.08;102139.56;5034694;28;20183;-72
2022/03/21 04:18:23;;;;;;;12.00;9.23;;;;;;;1.92;68.02;102129.84;5052423;28;20179;-71
2022/03/21 04:20:50;;;;;;;22.73;14.23;;;;;;;2.16;67.66;102129.09;5052619;28;20171;-71
2022/03/21 04:23:17;;;;;;;14.63;9.93;;;;;;;2.17;67.64;102136.19;5052825;28;20175;-71
2022/03/21 04:25:42;;;;;;;21.10;12.53;;;;;;;1.93;66.92;102126.09;5035825;28;20179;-71
2022/03/21 04:28:12;;;;;;;16.37;11.07;;;;;;;1.87;67.67;102118.84;5052563;28;20183;-72
2022/03/21 04:30:38;;;;;;;9.53;8.53;;;;;;;1.78;68.11;102127.19;5052551;28;20172;-71
2022/03/21 04:33:09;;;;;;;12.17;7.17;;;;;;;1.81;68.00;102122.41;5052530;28;20186;-71
2022/03/21 04:35:35;;;;;;;8.40;7.03;;;;;;;1.69;68.08;102120.34;5052877;28;20171;-71
2022/03/21 04:38:01;;;;;;;8.87;6.60;;;;;;;1.27;69.49;102112.75;5052146;28;20650;-71
2022/03/21 04:40:27;;;;;;;8.13;7.30;;;;;;;1.14;70.61;102122.50;5052505;28;20542;-71
2022/03/21 04:42:52;;;;;;;8.07;7.20;;;;;;;1.00;71.47;102109.25;5052477;28;20213;-71
2022/03/21 04:45:18;;;;;;;8.10;6.93;;;;;;;0.95;71.65;102120.63;5052231;28;20214;-72
2022/03/21 04:47:45;;;;;;;9.87;7.93;;;;;;;0.74;73.14;102107.38;5052014;28;20201;-71
2022/03/21 04:50:11;;;;;;;10.97;7.63;;;;;;;0.65;73.38;102116.69;5052482;28;20522;-71
2022/03/21 04:52:37;;;;;;;8.63;7.63;;;;;;;0.58;74.29;102114.81;5051757;28;20732;-71
2022/03/21 04:55:03;;;;;;;10.07;8.83;;;;;;;0.67;74.42;102130.75;5051965;28;20199;-71
2022/03/21 04:57:30;;;;;;;8.17;7.30;;;;;;;0.74;74.45;102134.28;5051440;28;20178;-71
2022/03/21 04:59:56;;;;;;;13.90;7.13;;;;;;;0.95;74.19;102138.66;5052437;28;20627;-71
2022/03/21 05:02:21;;;;;;;8.73;7.10;;;;;;;0.82;73.98;102121.44;5051854;28;20182;-74
2022/03/21 05:04:47;;;;;;;12.33;8.27;;;;;;;0.63;74.77;102129.50;5051731;28;20266;-71
2022/03/21 05:07:17;;;;;;;8.03;6.77;;;;;;;0.45;75.49;102117.47;5051096;28;20517;-71
2022/03/21 05:09:45;;;;;;;8.37;7.47;;;;;;;0.31;76.81;102117.63;5051208;28;20178;-71
2022/03/21 05:12:12;;;;;;;7.87;7.13;;;;;;;0.38;76.38;102127.34;5051664;28;20258;-71
2022/03/21 05:14:38;;;;;;;10.40;7.70;;;;;;;0.34;76.72;102126.13;5051812;28;20663;-73
2022/03/21 05:17:05;;;;;;;9.73;7.70;;;;;;;0.29;77.08;102120.53;5051636;28;20593;-73
2022/03/21 05:19:35;;;;;;;8.63;7.83;;;;;;;0.36;76.83;102145.56;5051482;28;20583;-74
2022/03/21 05:22:01;;;;;;;10.80;8.57;;;;;;;0.38;77.26;102127.34;5051294;28;20176;-72
2022/03/21 05:32:39;;;;;;;10.37;7.87;;;;;;;1.13;75.65;102145.06;5051044;28;20276;-73
2022/03/21 05:37:48;;;;;;;9.20;7.60;;;;;;;1.16;75.34;102143.84;5050807;28;20638;-73
2022/03/21 05:40:35;;;;;;;10.17;7.70;;;;;;;1.20;74.70;102134.31;5087653;28;21102;-73
2022/03/21 05:43:02;;;;;;;10.53;7.33;;;;;;;1.21;74.58;102135.13;5088302;28;20697;-72
2022/03/21 05:45:28;;;;;;;8.87;7.40;;;;;;;1.16;74.70;102143.84;5088260;28;20169;-72
2022/03/21 05:50:38;;;;;;;9.70;7.33;;;;;;;0.83;75.47;102138.41;5088204;28;20273;-72
2022/03/21 05:53:05;;;;;;;10.17;7.00;;;;;;;0.78;75.42;102132.84;5088027;28;20249;-72
2022/03/21 05:55:31;;;;;;;8.43;7.50;;;;;;;0.93;75.31;102141.53;5087783;28;20235;-73
2022/03/21 05:57:59;;;;;;;7.37;6.67;;;;;;;0.89;75.36;102146.50;5086281;28;20220;-72
2022/03/21 06:00:25;;;;;;;8.20;7.40;;;;;;;1.07;75.11;102137.81;5087711;28;20175;-72
2022/03/21 06:02:51;;;;;;;9.43;7.67;;;;;;;1.15;74.72;102140.28;5088287;28;20186;-72
2022/03/21 06:05:18;;;;;;;8.87;8.00;;;;;;;1.04;75.15;102142.81;5087714;28;20178;-72
2022/03/21 06:07:45;;;;;;;9.83;8.27;;;;;;;1.04;74.92;102159.78;5087371;28;20561;-73
2022/03/21 06:10:10;;;;;;;13.87;8.70;;;;;;;1.37;74.93;102154.38;5087553;28;20182;-74
2022/03/21 06:12:37;;;;;;;9.27;8.37;;;;;;;1.46;74.30;102157.72;5087811;28;20240;-76
2022/03/21 06:15:02;;;;;;;8.30;7.53;;;;;;;1.46;74.53;102160.41;5087681;28;20509;-72
2022/03/21 06:17:29;;;;;;;9.23;8.33;;;;;;;1.39;73.95;102154.19;5087673;28;20185;-73
2022/03/21 06:19:54;;;;;;;9.07;7.77;;;;;;;1.42;72.92;102156.44;5087444;28;20308;-72
2022/03/21 06:22:19;;;;;;;9.57;7.97;;;;;;;1.41;73.82;102154.78;5087394;28;20628;-72
2022/03/21 06:24:45;;;;;;;8.97;7.70;;;;;;;1.41;74.03;102165.56;5087318;28;20170;-75
2022/03/21 06:27:10;;;;;;;14.97;8.60;;;;;;;1.39;73.79;102173.84;5087417;28;20181;-71
2022/03/21 06:29:39;;;;;;;8.87;7.37;;;;;;;1.46;74.35;102173.88;5087332;28;20178;-73
2022/03/21 06:32:04;;;;;;;7.77;7.07;;;;;;;1.52;73.47;102178.41;5087327;28;20641;-72
2022/03/21 06:34:30;;;;;;;9.60;6.87;;;;;;;1.59;73.30;102183.78;5087443;28;20190;-72
2022/03/21 06:36:55;;;;;;;9.07;7.63;;;;;;;1.67;72.59;102191.66;5087185;28;20178;-71
2022/03/21 06:39:20;;;;;;;9.43;8.37;;;;;;;1.74;72.39;102198.69;5085826;28;20214;-72
2022/03/21 06:41:46;;;;;;;9.23;8.33;;;;;;;1.83;72.55;102196.59;5087252;28;20617;-72
2022/03/21 06:44:12;;;;;;;9.87;8.83;;;;;;;1.88;72.46;102194.13;5086912;28;20167;-72
2022/03/21 06:46:38;;;;;;;9.10;8.20;;;;;;;1.90;72.17;102199.28;5086765;28;20538;-72
2022/03/21 06:49:03;;;;;;;10.80;9.70;;;;;;;2.01;72.36;102204.03;5086669;28;20226;-72
2022/03/21 06:51:29;;;;;;;11.10;8.37;;;;;;;2.10;72.17;102210.84;5074767;28;20224;-72
2022/03/21 06:53:54;;;;;;;13.30;8.97;;;;;;;2.20;71.75;102211.25;5073512;28;20175;-72
2022/03/21 06:56:20;;;;;;;9.73;8.57;;;;;;;2.30;71.76;102219.69;5073410;28;20189;-72
2022/03/21 06:58:46;;;;;;;14.17;9.60;;;;;;;2.40;71.19;102219.25;5071773;28;20187;-74
2022/03/21 07:01:11;;;;;;;11.37;9.00;;;;;;;2.49;69.98;102225.25;5073112;28;20204;-74
2022/03/21 07:03:36;;;;;;;11.20;9.00;;;;;;;2.57;69.27;102222.28;5073176;28;20216;-73
2022/03/21 07:06:02;;;;;;;11.97;10.57;;;;;;;2.67;69.12;102233.47;5073498;28;20217;-72
2022/03/21 07:08:27;;;;;;;10.53;9.53;;;;;;;2.75;68.83;102233.22;5073196;28;20198;-71
2022/03/21 07:10:52;;;;;;;11.57;9.73;;;;;;;2.88;69.16;102235.84;5072793;28;20171;-72
2022/03/21 07:13:18;;;;;;;9.13;8.17;;;;;;;2.96;69.05;102243.69;5071832;28;20181;-73
2022/03/21 07:15:44;;;;;;;9.83;8.83;;;;;;;3.06;69.30;102242.41;5071761;28;20525;-72
2022/03/21 07:18:09;;;;;;;11.37;8.83;;;;;;;3.16;69.17;102253.53;5071457;28;20175;-72
2022/03/21 07:20:35;;;;;;;11.57;9.93;;;;;;;3.25;69.71;102244.97;5067524;28;20187;-74
2022/03/21 07:23:00;;;;;;;9.83;8.80;;;;;;;3.31;69.61;102245.97;5072417;28;20180;-73
2022/03/21 07:25:26;;;;;;;9.30;8.40;;;;;;;3.41;69.85;102259.81;5072496;28;20210;-71
2022/03/21 07:27:52;;;;;;;10.33;9.27;;;;;;;3.53;69.58;102249.97;5072338;28;20178;-71
2022/03/21 07:30:18;;;;;;;9.97;9.00;;;;;;;3.59;69.11;102259.88;5071351;28;20202;-72
2022/03/21 07:32:44;;;;;;;16.17;9.47;;;;;;;3.71;68.91;102272.69;5072541;28;20364;-71
2022/03/21 07:35:10;;;;;;;12.73;9.23;;;;;;;3.77;68.57;102274.53;5072345;28;20266;-72
2022/03/21 07:37:46;;;;;;;10.27;9.23;;;;;;;3.88;68.29;102269.19;5071931;28;20261;-72
2022/03/21 07:40:12;;;;;;;10.63;9.63;;;;;;;4.02;68.20;102279.88;5072157;28;20227;-71
2022/03/21 07:42:41;;;;;;;14.87;10.70;;;;;;;4.04;67.51;102275.91;5072334;28;20190;-72
2022/03/21 07:47:53;;;;;;;10.20;9.20;;;;;;;4.32;66.57;102275.41;5072553;28;20232;-72
2022/03/21 07:50:20;;;;;;;10.17;9.17;;;;;;;4.46;65.65;102281.50;5072322;28;20638;-73
2022/03/21 07:52:49;;;;;;;10.67;9.57;;;;;;;4.53;64.85;102282.28;5072317;28;20687;-72
2022/03/21 07:55:14;;;;;;;11.40;10.30;;;;;;;4.67;64.34;102291.91;5072166;28;20197;-72
2022/03/21 07:57:40;;;;;;;10.23;9.23;;;;;;;4.67;63.79;102286.50;5069353;28;20206;-72
2022/03/21 08:00:09;;;;;;;11.13;9.43;;;;;;;4.82;63.76;102293.41;5072058;28;20661;-72
2022/03/21 08:02:35;;;;;;;11.03;9.93;;;;;;;4.85;63.08;102296.47;5070935;28;20665;-72
2022/03/21 08:05:01;;;;;;;11.10;10.00;;;;;;;4.96;63.28;102303.84;5071698;28;20167;-72
2022/03/21 08:07:27;;;;;;;11.13;9.17;;;;;;;5.13;63.25;102309.44;5071453;28;20171;-71
2022/03/21 08:09:52;;;;;;;11.97;10.77;;;;;;;5.28;62.55;102314.44;5071857;28;20178;-72
2022/03/21 08:12:18;;;;;;;11.03;9.93;;;;;;;5.37;62.21;102311.19;5071857;28;20166;-72
2022/03/21 08:14:43;;;;;;;10.73;9.50;;;;;;;5.45;61.37;102312.75;5071943;28;20502;-72
2022/03/21 08:17:09;;;;;;;11.80;10.60;;;;;;;5.59;61.82;102316.91;5067439;28;20180;-72
2022/03/21 08:19:35;;;;;;;10.13;9.20;;;;;;;5.76;62.37;102322.47;5070137;28;20206;-74
2022/03/21 08:22:01;;;;;;;10.90;9.83;;;;;;;5.91;60.86;102320.19;5071529;28;20216;-74
2022/03/21 08:24:26;;;;;;;10.87;9.53;;;;;;;5.95;60.41;102328.69;5071904;28;20257;-75
2022/03/21 08:26:54;;;;;;;10.57;9.50;;;;;;;6.08;59.93;102328.47;5071563;28;20175;-72
2022/03/21 08:29:19;;;;;;;10.60;9.53;;;;;;;6.09;59.32;102329.31;5071747;28;20251;-72
2022/03/21 08:31:44;;;;;;;16.47;10.73;;;;;;;6.24;59.98;102343.22;5072291;28;20254;-73
2022/03/21 08:34:10;;;;;;;11.40;9.90;;;;;;;6.38;60.02;102341.09;5072522;28;20217;-71
2022/03/21 08:36:35;;;;;;;13.90;11.20;;;;;;;6.55;59.74;102340.16;5071427;28;20236;-72
2022/03/21 08:39:02;;;;;;;11.50;10.50;;;;;;;6.52;58.29;102346.06;5071373;28;20204;-73
2022/03/21 08:41:27;;;;;;;11.30;10.20;;;;;;;6.59;58.50;102332.34;5071384;28;20586;-72
2022/03/21 08:43:53;;;;;;;12.53;10.43;;;;;;;6.59;58.30;102335.06;5070141;28;20174;-75
2022/03/21 08:46:21;;;;;;;11.13;10.13;;;;;;;6.81;58.59;102343.41;5071444;28;20257;-72
2022/03/21 08:51:32;;;;;;;11.97;10.67;;;;;;;6.96;57.43;102330.16;5071306;28;20209;-72
2022/03/21 08:53:57;;;;;;;12.83;10.37;;;;;;;7.21;57.81;102334.44;5071423;28;20170;-73
2022/03/21 08:56:23;;;;;;;12.37;11.07;;;;;;;7.21;56.92;102337.13;5070948;28;20174;-73
2022/03/21 08:58:48;;;;;;;13.00;11.70;;;;;;;7.25;56.41;102343.78;5070852;28;20202;-73
2022/03/21 09:01:14;;;;;;;12.90;11.13;;;;;;;7.43;56.55;102346.28;5070997;28;20171;-77
2022/03/21 09:03:40;;;;;;;11.57;10.53;;;;;;;7.49;55.41;102345.28;5070817;28;20210;-73
2022/03/21 09:06:05;;;;;;;13.03;11.40;;;;;;;7.54;55.57;102331.00;5070860;28;20846;-73
2022/03/21 09:08:30;;;;;;;11.70;10.50;;;;;;;7.75;55.45;102343.88;5070611;28;20179;-72
2022/03/21 09:10:56;;;;;;;13.43;10.83;;;;;;;7.82;55.08;102358.16;5070867;28;20204;-72
2022/03/21 09:13:23;;;;;;;11.53;10.37;;;;;;;7.91;54.78;102353.94;5070489;28;20170;-73
2022/03/21 09:15:48;;;;;;;12.13;10.97;;;;;;;7.86;54.16;102364.75;5070784;28;20175;-72
2022/03/21 09:18:13;;;;;;;11.87;10.63;;;;;;;8.01;55.11;102366.91;5070674;28;20193;-72
2022/03/21 09:20:39;;;;;;;12.10;11.03;;;;;;;8.15;54.64;102362.78;5070614;28;20175;-73
2022/03/21 09:23:05;;;;;;;13.70;10.83;;;;;;;8.26;53.99;102340.09;5070881;28;20167;-72
2022/03/21 09:25:30;;;;;;;12.30;11.20;;;;;;;8.27;54.16;102333.56;5068949;28;20848;-72
2022/03/21 09:27:56;;;;;;;12.40;10.13;;;;;;;8.42;54.36;102333.00;5068369;28;20469;-72
2022/03/21 09:30:21;;;;;;;13.13;11.10;;;;;;;8.46;53.25;102346.94;5069126;28;20189;-73
2022/03/21 09:32:46;;;;;;;11.10;10.03;;;;;;;8.57;53.68;102349.56;5070600;28;20171;-73
2022/03/21 09:35:13;;;;;;;12.20;11.00;;;;;;;8.74;53.50;102357.69;5070676;28;20604;-73
2022/03/21 09:37:39;;;;;;;11.67;9.70;;;;;;;8.83;53.23;102337.09;5070264;28;20178;-72
2022/03/21 09:40:06;;;;;;;10.93;9.93;;;;;;;8.87;52.65;102368.22;5070229;28;20694;-72
2022/03/21 09:42:33;;;;;;;13.77;10.63;;;;;;;9.14;52.72;102373.75;5070168;28;20171;-72
2022/03/21 09:44:58;;;;;;;11.80;10.70;;;;;;;9.32;52.92;102358.13;5070183;28;20174;-73
2022/03/21 09:50:11;;;;;;;11.17;10.17;;;;;;;9.68;48.56;102357.41;5070496;28;20188;-72
2022/03/21 09:52:37;;;;;;;11.33;10.13;;;;;;;9.91;48.83;102364.44;5070295;28;20171;-73
2022/03/21 09:55:04;;;;;;;13.03;11.17;;;;;;;10.04;47.41;102325.78;5070135;28;20551;-72
2022/03/21 09:57:30;;;;;;;10.87;9.77;;;;;;;10.18;47.47;102337.09;5069950;28;20258;-72
2022/03/21 09:59:57;;;;;;;12.13;10.40;;;;;;;10.10;46.62;102351.22;5070197;28;20296;-72
2022/03/21 10:02:24;;;;;;;11.87;10.67;;;;;;;10.32;47.24;102345.69;5070120;28;20306;-72
2022/03/21 10:04:50;;;;;;;11.80;10.60;;;;;;;10.51;46.93;102354.28;5070165;28;20176;-73
2022/03/21 10:07:26;;;;;;;11.70;9.83;;;;;;;10.63;46.67;102350.25;5069915;28;20167;-72
2022/03/21 10:10:06;;;;;;;11.27;10.17;;;;;;;10.67;45.65;102321.28;5070114;28;20285;-72
2022/03/21 10:12:32;;;;;;;10.67;9.67;;;;;;;10.55;45.23;102317.13;5070063;28;20167;-72
2022/03/21 10:14:59;;;;;;;11.40;10.33;;;;;;;10.68;46.12;102327.59;5070213;28;20171;-72
2022/03/21 10:17:25;;;;;;;11.07;10.03;;;;;;;10.91;46.27;102323.59;5069819;28;20618;-72
2022/03/21 10:19:52;;;;;;;10.40;9.37;;;;;;;11.06;45.87;102323.66;5069928;28;20216;-72
2022/03/21 10:22:33;;;;;;;14.70;11.43;;;;;;;11.23;47.09;102318.78;5069946;28;20392;-72
2022/03/21 10:25:06;;;;;;;12.53;10.40;;;;;;;11.38;46.53;102330.84;5070297;28;20170;-72
2022/03/21 10:27:40;;;;;;;11.40;10.40;;;;;;;11.44;46.20;102327.06;5073247;28;20179;-72
2022/03/21 10:30:10;;;;;;;13.03;10.47;;;;;;;11.45;45.73;102312.28;5073660;28;20155;-73
2022/03/21 10:32:46;;;;;;;12.67;11.47;;;;;;;11.22;47.33;102308.94;5073746;28;20175;-74
2022/03/21 10:35:23;;;;;;;13.50;10.33;;;;;;;11.10;48.04;102308.34;5073722;28;20460;-72
2022/03/21 10:37:58;;;;;;;17.50;11.67;;;;;;;10.95;47.91;102302.81;5073389;28;20194;-73
2022/03/21 10:40:44;;;;;;;12.70;11.40;;;;;;;11.00;48.41;102317.34;5073845;28;20209;-72
2022/03/21 10:43:15;;;;;;;16.77;10.93;;;;;;;10.93;47.90;102305.81;5073377;28;20186;-72
2022/03/21 10:45:42;;;;;;;11.40;10.30;;;;;;;10.95;48.29;102306.38;5073552;28;20696;-78
2022/03/21 10:48:22;;;;;;;12.13;10.83;;;;;;;10.84;47.40;102293.75;5073445;28;20715;-72
2022/03/21 10:50:55;;;;;;;12.00;10.97;;;;;;;10.86;47.91;102298.97;5073500;28;20178;-73
2022/03/21 10:53:28;;;;;;;12.10;11.00;;;;;;;10.89;48.81;102312.09;5073389;28;20178;-72
2022/03/21 10:56:10;;;;;;;12.40;11.30;;;;;;;10.88;48.11;102296.78;5070486;28;20182;-73
2022/03/21 10:58:41;;;;;;;12.10;11.07;;;;;;;10.93;47.84;102307.75;5065344;28;20255;-79
2022/03/21 11:01:15;;;;;;;12.97;11.67;;;;;;;11.00;47.99;102308.34;5073408;28;20285;-79
2022/03/21 11:03:42;;;;;;;12.77;11.00;;;;;;;11.11;48.11;102309.16;5073007;28;20177;-73
2022/03/21 11:06:09;;;;;;;13.40;12.10;;;;;;;11.22;47.95;102295.25;5073139;28;20177;-72
2022/03/21 11:08:36;;;;;;;13.67;12.13;;;;;;;11.23;47.97;102296.06;5072950;28;20178;-74
2022/03/21 11:11:02;;;;;;;13.53;12.23;;;;;;;11.37;48.18;102297.19;5072766;28;20170;-73
2022/03/21 11:13:28;;;;;;;15.03;12.27;;;;;;;11.70;48.38;102303.25;5072990;28;20171;-73
2022/03/21 11:15:54;;;;;;;13.73;12.53;;;;;;;11.71;47.46;102300.22;5072917;28;20170;-72
2022/03/21 11:18:20;;;;;;;13.47;12.17;;;;;;;11.64;47.52;102288.75;5072652;28;20576;-72
2022/03/21 11:20:47;;;;;;;14.33;13.10;;;;;;;11.85;47.28;102284.94;5071435;28;20612;-72
2022/03/21 11:23:15;;;;;;;13.57;12.37;;;;;;;11.79;47.81;102283.28;5074022;28;20181;-72
2022/03/21 11:25:48;;;;;;;14.00;12.57;;;;;;;11.73;47.60;102284.38;5084331;28;20170;-72
2022/03/21 11:28:38;;;;;;;14.80;13.40;;;;;;;11.84;47.28;102277.81;5075734;28;20186;-71
2022/03/21 11:31:21;;;;;;;14.13;12.70;;;;;;;11.90;47.67;102281.38;5073931;28;20175;-72
2022/03/21 11:33:58;;;;;;;13.13;12.03;;;;;;;11.96;47.52;102283.00;5073071;28;20166;-71
2022/03/21 11:36:24;;;;;;;14.43;12.73;;;;;;;12.12;47.44;102276.41;5071331;28;20377;-72
2022/03/21 11:38:58;;;;;;;14.93;13.53;;;;;;;12.24;47.31;102284.34;5072529;28;20205;-72
2022/03/21 11:41:26;;;;;;;14.67;13.23;;;;;;;12.26;46.81;102278.56;5072717;28;20178;-72
2022/03/21 11:44:03;;;;;;;13.57;12.27;;;;;;;12.17;47.01;102278.34;5072558;28;20240;-73
2022/03/21 11:46:33;;;;;;;14.57;13.17;;;;;;;12.10;46.32;102275.88;5071386;28;20279;-73
2022/03/21 11:49:00;;;;;;;14.67;13.37;;;;;;;12.33;46.80;102284.59;5072287;28;20534;-73
2022/03/21 11:51:29;;;;;;;13.77;12.53;;;;;;;12.51;46.82;102279.34;5072371;28;20174;-72